createdAt,value
2017-04-10T00:00:05.550Z,21.58
2017-04-10T00:01:15.152Z,21.54
2017-04-10T00:02:25.132Z,21.59
2017-04-10T00:03:35.369Z,21.53
2017-04-10T00:04:45.610Z,21.56
2017-04-10T00:05:55.534Z,21.53
2017-04-10T00:07:05.454Z,21.59
2017-04-10T00:08:15.383Z,21.5
2017-04-10T00:09:25.660Z,21.59
2017-04-10T00:10:35.275Z,21.53
2017-04-10T00:11:45.510Z,21.58
2017-04-10T00:12:55.747Z,21.54
2017-04-10T00:14:05.348Z,21.54
2017-04-10T00:15:15.263Z,21.54
2017-04-10T00:16:24.875Z,21.53
2017-04-10T00:17:35.110Z,21.53
2017-04-10T00:18:45.342Z,21.53
2017-04-10T00:19:55.265Z,21.53
2017-04-10T00:21:05.500Z,21.5
2017-04-10T00:22:15.108Z,21.54
2017-04-10T00:23:25.028Z,21.53
2017-04-10T00:24:35.314Z,21.5
2017-04-10T00:25:45.250Z,21.58
2017-04-10T00:26:54.867Z,21.52
2017-04-10T00:28:05.103Z,21.49
2017-04-10T00:29:15.031Z,21.52
2017-04-10T00:30:25.264Z,21.61
2017-04-10T00:31:35.183Z,21.53
2017-04-10T00:32:45.420Z,21.5
2017-04-10T00:33:55.665Z,21.52
2017-04-10T00:35:05.904Z,21.54
2017-04-10T00:36:15.827Z,21.53
2017-04-10T00:37:26.070Z,21.47
2017-04-10T00:38:35.691Z,21.52
2017-04-10T00:39:44.994Z,21.54
2017-04-10T00:40:55.230Z,21.58
2017-04-10T00:42:05.467Z,21.56
2017-04-10T00:43:15.387Z,21.59
2017-04-10T00:44:25.625Z,21.64
2017-04-10T00:45:35.855Z,21.49
2017-04-10T00:46:46.104Z,21.58
2017-04-10T00:47:56.367Z,21.49
2017-04-10T00:49:06.607Z,21.56
2017-04-10T00:50:16.534Z,21.54
2017-04-10T00:51:26.763Z,21.59
2017-04-10T00:52:36.992Z,21.5
2017-04-10T00:53:46.627Z,21.5
2017-04-10T00:54:56.872Z,21.58
2017-04-10T00:56:07.109Z,21.53
2017-04-10T00:57:16.721Z,21.56
2017-04-10T00:58:26.335Z,21.56
2017-04-10T00:59:36.270Z,21.52
2017-04-10T01:00:46.500Z,21.54
2017-04-10T01:01:56.423Z,21.43
2017-04-10T01:03:06.664Z,21.5
2017-04-10T01:04:16.283Z,21.56
2017-04-10T01:05:26.517Z,21.59
2017-04-10T01:06:35.812Z,21.61
2017-04-10T01:07:45.458Z,21.52
2017-04-10T01:08:55.399Z,21.5
2017-04-10T01:10:05.326Z,21.53
2017-04-10T01:11:15.564Z,21.49
2017-04-10T01:12:25.829Z,21.58
2017-04-10T01:13:35.451Z,21.53
2017-04-10T01:14:45.379Z,21.37
2017-04-10T01:15:55.619Z,21.53
2017-04-10T01:17:05.551Z,21.53
2017-04-10T01:18:15.792Z,21.52
2017-04-10T01:19:26.028Z,21.56
2017-04-10T01:20:36.274Z,21.52
2017-04-10T01:21:46.514Z,21.53
2017-04-10T01:22:56.439Z,21.56
2017-04-10T01:24:06.362Z,21.54
2017-04-10T01:25:16.275Z,21.52
2017-04-10T01:26:26.528Z,21.53
2017-04-10T01:27:36.761Z,21.59
2017-04-10T01:28:46.368Z,21.53
2017-04-10T01:29:56.286Z,21.49
2017-04-10T01:31:06.225Z,21.54
2017-04-10T01:32:16.158Z,21.56
2017-04-10T01:33:25.775Z,21.53
2017-04-10T01:34:35.709Z,21.52
2017-04-10T01:35:45.634Z,21.54
2017-04-10T01:36:55.870Z,21.42
2017-04-10T01:38:05.798Z,21.54
2017-04-10T01:39:16.028Z,21.56
2017-04-10T01:40:25.991Z,21.47
2017-04-10T01:41:36.222Z,21.46
2017-04-10T01:42:46.453Z,21.58
2017-04-10T01:43:56.683Z,21.46
2017-04-10T01:45:06.936Z,21.62
2017-04-10T01:46:17.177Z,21.38
2017-04-10T01:47:26.794Z,21.43
2017-04-10T01:48:36.724Z,21.43
2017-04-10T01:49:46.958Z,21.49
2017-04-10T01:50:56.592Z,21.44
2017-04-10T01:52:06.825Z,21.46
2017-04-10T01:53:17.068Z,21.46
2017-04-10T01:54:27.300Z,21.43
2017-04-10T01:55:37.219Z,21.44
2017-04-10T01:56:47.451Z,21.44
2017-04-10T01:57:56.752Z,21.43
2017-04-10T01:59:06.980Z,21.49
2017-04-10T02:00:16.915Z,21.49
2017-04-10T02:01:27.153Z,21.42
2017-04-10T02:02:37.389Z,21.35
2017-04-10T02:03:47.314Z,21.43
2017-04-10T02:04:57.234Z,21.46
2017-04-10T02:06:07.473Z,21.38
2017-04-10T02:07:17.386Z,21.35
2017-04-10T02:08:27.311Z,21.49
2017-04-10T02:09:37.226Z,21.42
2017-04-10T02:10:47.172Z,21.37
2017-04-10T02:11:56.780Z,21.35
2017-04-10T02:13:06.708Z,21.35
2017-04-10T02:14:16.664Z,21.37
2017-04-10T02:15:26.899Z,21.38
2017-04-10T02:16:36.818Z,21.37
2017-04-10T02:17:46.738Z,21.37
2017-04-10T02:18:56.658Z,21.35
2017-04-10T02:20:06.896Z,21.43
2017-04-10T02:21:16.829Z,21.38
2017-04-10T02:22:26.749Z,21.43
2017-04-10T02:23:36.989Z,21.46
2017-04-10T02:24:46.913Z,21.4
2017-04-10T02:25:57.142Z,21.42
2017-04-10T02:27:07.374Z,21.31
2017-04-10T02:28:17.298Z,21.44
2017-04-10T02:29:27.228Z,21.42
2017-04-10T02:30:36.841Z,21.4
2017-04-10T02:31:46.768Z,21.46
2017-04-10T02:32:57.048Z,21.37
2017-04-10T02:34:07.282Z,21.43
2017-04-10T02:35:17.218Z,21.52
2017-04-10T02:36:27.140Z,21.53
2017-04-10T02:37:37.376Z,21.54
2017-04-10T02:38:46.990Z,21.5
2017-04-10T02:39:56.594Z,21.61
2017-04-10T02:41:06.833Z,21.54
2017-04-10T02:42:16.438Z,21.53
2017-04-10T02:43:26.367Z,21.58
2017-04-10T02:44:35.978Z,21.59
2017-04-10T02:45:45.907Z,21.54
2017-04-10T02:46:55.831Z,21.52
2017-04-10T02:48:06.109Z,21.54
2017-04-10T02:49:16.029Z,21.56
2017-04-10T02:50:25.947Z,21.59
2017-04-10T02:51:36.188Z,21.54
2017-04-10T02:52:46.427Z,21.58
2017-04-10T02:53:56.655Z,21.52
2017-04-10T02:55:06.898Z,21.58
2017-04-10T02:56:16.821Z,21.56
2017-04-10T02:57:26.746Z,21.47
2017-04-10T02:58:36.979Z,21.53
2017-04-10T02:59:47.221Z,21.46
2017-04-10T03:00:57.150Z,21.52
2017-04-10T03:02:07.077Z,21.43
2017-04-10T03:03:17.315Z,21.43
2017-04-10T03:04:26.936Z,21.42
2017-04-10T03:05:37.179Z,21.52
2017-04-10T03:06:46.789Z,21.56
2017-04-10T03:07:56.716Z,21.53
2017-04-10T03:09:06.960Z,21.53
2017-04-10T03:10:16.881Z,21.53
2017-04-10T03:11:26.491Z,21.52
2017-04-10T03:12:36.414Z,21.56
2017-04-10T03:13:46.652Z,21.54
2017-04-10T03:14:56.574Z,21.54
2017-04-10T03:16:06.499Z,21.44
2017-04-10T03:17:16.421Z,21.42
2017-04-10T03:18:26.034Z,21.59
2017-04-10T03:19:36.270Z,21.52
2017-04-10T03:20:46.505Z,21.52
2017-04-10T03:21:56.421Z,21.54
2017-04-10T03:23:06.356Z,21.52
2017-04-10T03:24:16.283Z,21.46
2017-04-10T03:25:26.518Z,21.44
2017-04-10T03:26:36.748Z,21.56
2017-04-10T03:27:46.665Z,21.52
2017-04-10T03:28:56.589Z,21.5
2017-04-10T03:30:06.830Z,21.54
2017-04-10T03:31:16.765Z,21.53
2017-04-10T03:32:26.992Z,21.56
2017-04-10T03:33:37.230Z,21.53
2017-04-10T03:34:47.463Z,21.52
2017-04-10T03:35:57.702Z,21.56
2017-04-10T03:37:07.942Z,21.59
2017-04-10T03:38:17.554Z,21.52
2017-04-10T03:39:26.856Z,21.59
2017-04-10T03:40:36.791Z,21.54
2017-04-10T03:41:46.400Z,21.52
2017-04-10T03:42:56.633Z,21.58
2017-04-10T03:44:06.875Z,21.52
2017-04-10T03:45:17.110Z,21.54
2017-04-10T03:46:27.346Z,21.47
2017-04-10T03:47:37.580Z,21.47
2017-04-10T03:48:47.814Z,21.52
2017-04-10T03:49:58.043Z,21.56
2017-04-10T03:51:07.968Z,21.43
2017-04-10T03:52:18.206Z,21.46
2017-04-10T03:53:28.138Z,21.49
2017-04-10T03:54:38.371Z,21.42
2017-04-10T03:55:47.987Z,21.46
2017-04-10T03:56:58.227Z,21.32
2017-04-10T03:58:08.153Z,21.38
2017-04-10T03:59:18.107Z,21.28
2017-04-10T04:00:28.333Z,21.35
2017-04-10T04:01:37.951Z,21.38
2017-04-10T04:02:47.877Z,21.37
2017-04-10T04:03:58.114Z,21.44
2017-04-10T04:05:08.046Z,21.24
2017-04-10T04:06:17.970Z,21.27
2017-04-10T04:07:27.887Z,21.27
2017-04-10T04:08:37.497Z,21.35
2017-04-10T04:09:47.421Z,21.22
2017-04-10T04:10:57.653Z,21.25
2017-04-10T04:12:06.953Z,21.25
2017-04-10T04:13:16.873Z,21.24
2017-04-10T04:14:27.110Z,21.24
2017-04-10T04:15:37.033Z,21.28
2017-04-10T04:16:46.958Z,21.27
2017-04-10T04:17:57.184Z,21.24
2017-04-10T04:19:07.414Z,21.25
2017-04-10T04:20:17.650Z,21.19
2017-04-10T04:21:27.567Z,21.24
2017-04-10T04:22:37.840Z,21.31
2017-04-10T04:23:47.771Z,21.24
2017-04-10T04:24:58.002Z,21.24
2017-04-10T04:26:07.612Z,21.28
2017-04-10T04:27:17.533Z,21.22
2017-04-10T04:28:27.142Z,21.27
2017-04-10T04:29:37.069Z,21.28
2017-04-10T04:30:47.303Z,21.29
2017-04-10T04:31:57.222Z,21.29
2017-04-10T04:33:07.139Z,21.28
2017-04-10T04:34:17.369Z,21.24
2017-04-10T04:35:27.291Z,21.28
2017-04-10T04:36:37.526Z,21.24
2017-04-10T04:37:47.761Z,21.25
2017-04-10T04:38:58.001Z,21.24
2017-04-10T04:40:08.232Z,21.25
2017-04-10T04:41:18.181Z,21.22
2017-04-10T04:42:28.107Z,21.22
2017-04-10T04:43:38.342Z,21.24
2017-04-10T04:44:48.578Z,21.22
2017-04-10T04:45:58.502Z,21.19
2017-04-10T04:47:08.727Z,21.24
2017-04-10T04:48:18.326Z,21.27
2017-04-10T04:49:28.246Z,21.19
2017-04-10T04:50:38.173Z,21.24
2017-04-10T04:51:48.414Z,21.22
2017-04-10T04:52:58.341Z,21.13
2017-04-10T04:54:08.271Z,21.22
2017-04-10T04:55:18.195Z,21.22
2017-04-10T04:56:28.427Z,21.27
2017-04-10T04:57:38.664Z,21.22
2017-04-10T04:58:48.902Z,21.17
2017-04-10T04:59:58.866Z,21.16
2017-04-10T05:01:09.112Z,21.19
2017-04-10T05:02:19.348Z,21.21
2017-04-10T05:03:29.270Z,21.24
2017-04-10T05:04:39.503Z,21.21
2017-04-10T05:05:49.740Z,21.17
2017-04-10T05:06:59.977Z,21.24
2017-04-10T05:08:10.209Z,21.14
2017-04-10T05:09:20.130Z,21.16
2017-04-10T05:10:30.383Z,21.21
2017-04-10T05:11:40.616Z,21.24
2017-04-10T05:12:50.874Z,21.24
2017-04-10T05:14:01.096Z,21.22
2017-04-10T05:15:11.334Z,21.22
2017-04-10T05:16:21.256Z,21.17
2017-04-10T05:17:31.488Z,21.13
2017-04-10T05:18:41.096Z,21.25
2017-04-10T05:19:51.327Z,21.17
2017-04-10T05:21:01.250Z,21.21
2017-04-10T05:22:11.167Z,21.14
2017-04-10T05:23:21.084Z,21.16
2017-04-10T05:24:30.691Z,21.17
2017-04-10T05:25:40.619Z,21.21
2017-04-10T05:26:50.853Z,21.19
2017-04-10T05:28:00.464Z,21.17
2017-04-10T05:29:10.717Z,21.17
2017-04-10T05:30:20.946Z,21.19
2017-04-10T05:31:31.179Z,21.22
2017-04-10T05:32:41.414Z,21.14
2017-04-10T05:33:51.342Z,21.17
2017-04-10T05:35:01.577Z,21.21
2017-04-10T05:36:11.807Z,21.24
2017-04-10T05:37:22.035Z,21.17
2017-04-10T05:38:32.265Z,21.16
2017-04-10T05:39:42.500Z,21.24
2017-04-10T05:40:52.103Z,21.16
2017-04-10T05:42:01.399Z,21.12
2017-04-10T05:43:11.318Z,21.24
2017-04-10T05:44:21.237Z,21.19
2017-04-10T05:45:31.160Z,21.25
2017-04-10T05:46:41.080Z,21.22
2017-04-10T05:47:51.355Z,21.22
2017-04-10T05:49:01.591Z,21.31
2017-04-10T05:50:11.825Z,21.21
2017-04-10T05:51:22.061Z,21.25
2017-04-10T05:52:32.031Z,21.29
2017-04-10T05:53:41.951Z,21.25
2017-04-10T05:54:52.193Z,21.29
2017-04-10T05:56:02.435Z,21.19
2017-04-10T05:57:12.670Z,21.25
2017-04-10T05:58:22.898Z,21.24
2017-04-10T05:59:33.129Z,21.29
2017-04-10T06:00:43.359Z,21.32
2017-04-10T06:01:53.585Z,21.35
2017-04-10T06:03:03.824Z,21.32
2017-04-10T06:04:14.058Z,21.42
2017-04-10T06:05:24.039Z,21.37
2017-04-10T06:06:34.275Z,21.27
2017-04-10T06:07:44.205Z,21.29
2017-04-10T06:08:54.129Z,21.38
2017-04-10T06:10:04.367Z,21.4
2017-04-10T06:11:14.600Z,21.38
2017-04-10T06:12:24.514Z,21.44
2017-04-10T06:13:34.436Z,21.4
2017-04-10T06:14:44.358Z,21.38
2017-04-10T06:15:54.591Z,21.34
2017-04-10T06:17:04.824Z,21.4
2017-04-10T06:18:15.063Z,21.42
2017-04-10T06:19:25.289Z,21.42
2017-04-10T06:20:35.532Z,21.38
2017-04-10T06:21:45.770Z,21.37
2017-04-10T06:22:55.692Z,21.4
2017-04-10T06:24:05.310Z,21.4
2017-04-10T06:25:15.549Z,21.32
2017-04-10T06:26:25.786Z,21.34
2017-04-10T06:27:36.019Z,21.38
2017-04-10T06:28:46.250Z,21.4
2017-04-10T06:29:56.173Z,21.34
2017-04-10T06:31:06.421Z,21.42
2017-04-10T06:32:16.656Z,21.35
2017-04-10T06:33:26.891Z,21.44
2017-04-10T06:34:37.130Z,21.35
2017-04-10T06:35:47.049Z,21.37
2017-04-10T06:36:56.967Z,21.43
2017-04-10T06:38:07.196Z,21.42
2017-04-10T06:39:17.114Z,21.34
2017-04-10T06:40:27.034Z,21.42
2017-04-10T06:41:37.268Z,21.37
2017-04-10T06:42:47.189Z,21.38
2017-04-10T06:43:57.112Z,21.31
2017-04-10T06:45:07.041Z,21.38
2017-04-10T06:46:17.281Z,21.44
2017-04-10T06:47:27.206Z,21.34
2017-04-10T06:48:37.439Z,21.35
2017-04-10T06:49:47.676Z,21.37
2017-04-10T06:50:57.913Z,21.38
2017-04-10T06:52:07.208Z,21.46
2017-04-10T06:53:17.149Z,21.38
2017-04-10T06:54:27.067Z,21.49
2017-04-10T06:55:37.300Z,21.38
2017-04-10T06:56:47.225Z,21.43
2017-04-10T06:57:57.459Z,21.4
2017-04-10T06:59:07.688Z,21.37
2017-04-10T07:00:17.612Z,21.42
2017-04-10T07:01:27.843Z,21.42
2017-04-10T07:02:38.082Z,21.46
2017-04-10T07:03:47.701Z,21.49
2017-04-10T07:04:57.622Z,21.38
2017-04-10T07:06:07.865Z,21.38
2017-04-10T07:07:18.106Z,21.49
2017-04-10T07:08:28.333Z,21.42
2017-04-10T07:09:38.570Z,21.46
2017-04-10T07:10:48.810Z,21.43
2017-04-10T07:11:58.735Z,21.43
2017-04-10T07:13:08.662Z,21.47
2017-04-10T07:14:18.588Z,21.44
2017-04-10T07:15:28.503Z,21.44
2017-04-10T07:16:38.114Z,21.44
2017-04-10T07:17:48.039Z,21.47
2017-04-10T07:18:58.285Z,21.44
2017-04-10T07:20:08.233Z,21.44
2017-04-10T07:21:18.471Z,21.49
2017-04-10T07:22:28.701Z,21.44
2017-04-10T07:23:38.315Z,21.4
2017-04-10T07:24:48.236Z,21.4
2017-04-10T07:25:58.469Z,21.43
2017-04-10T07:27:08.395Z,21.49
2017-04-10T07:28:18.665Z,21.43
2017-04-10T07:29:28.902Z,21.43
2017-04-10T07:30:39.138Z,21.38
2017-04-10T07:31:49.378Z,21.47
2017-04-10T07:32:59.609Z,21.49
2017-04-10T07:34:09.843Z,21.53
2017-04-10T07:35:20.078Z,21.49
2017-04-10T07:36:30.006Z,21.53
2017-04-10T07:37:40.242Z,21.42
2017-04-10T07:38:50.478Z,21.46
2017-04-10T07:40:00.709Z,21.38
2017-04-10T07:41:10.947Z,21.46
2017-04-10T07:42:21.183Z,21.56
2017-04-10T07:43:31.103Z,21.54
2017-04-10T07:44:41.339Z,21.53
2017-04-10T07:45:51.267Z,21.54
2017-04-10T07:47:01.505Z,21.47
2017-04-10T07:48:11.455Z,21.53
2017-04-10T07:49:21.382Z,21.52
2017-04-10T07:50:31.625Z,21.5
2017-04-10T07:51:41.859Z,21.53
2017-04-10T07:52:51.795Z,21.54
2017-04-10T07:54:01.718Z,21.54
2017-04-10T07:55:11.640Z,21.53
2017-04-10T07:56:21.567Z,21.52
2017-04-10T07:57:31.487Z,21.59
2017-04-10T07:58:41.413Z,21.54
2017-04-10T07:59:51.641Z,21.56
2017-04-10T08:01:01.873Z,21.61
2017-04-10T08:02:11.804Z,21.59
2017-04-10T08:03:21.416Z,21.61
2017-04-10T08:04:31.648Z,21.58
2017-04-10T08:05:41.572Z,21.59
2017-04-10T08:06:51.806Z,21.64
2017-04-10T08:08:01.722Z,21.64
2017-04-10T08:09:11.960Z,21.64
2017-04-10T08:10:22.254Z,21.62
2017-04-10T08:11:31.876Z,21.62
2017-04-10T08:12:42.110Z,21.58
2017-04-10T08:13:52.040Z,21.65
2017-04-10T08:15:01.961Z,21.69
2017-04-10T08:16:11.577Z,21.64
2017-04-10T08:17:21.496Z,21.69
2017-04-10T08:18:31.109Z,21.62
2017-04-10T08:19:41.344Z,21.71
2017-04-10T08:20:51.585Z,21.61
2017-04-10T08:22:01.187Z,21.68
2017-04-10T08:23:11.448Z,21.71
2017-04-10T08:24:21.371Z,21.71
2017-04-10T08:25:31.613Z,21.68
2017-04-10T08:26:41.848Z,21.69
2017-04-10T08:27:52.076Z,21.72
2017-04-10T08:29:02.325Z,21.72
2017-04-10T08:30:12.563Z,21.74
2017-04-10T08:31:22.798Z,21.69
2017-04-10T08:32:33.031Z,21.71
2017-04-10T08:33:42.637Z,21.79
2017-04-10T08:34:52.564Z,21.71
2017-04-10T08:36:02.175Z,21.75
2017-04-10T08:37:12.109Z,21.71
2017-04-10T08:38:22.335Z,21.77
2017-04-10T08:39:32.275Z,21.82
2017-04-10T08:40:42.512Z,21.75
2017-04-10T08:41:52.437Z,21.72
2017-04-10T08:43:02.679Z,21.74
2017-04-10T08:44:12.920Z,21.71
2017-04-10T08:45:23.157Z,21.74
2017-04-10T08:46:33.087Z,21.77
2017-04-10T08:47:43.322Z,21.77
2017-04-10T08:48:53.256Z,21.75
2017-04-10T08:50:02.863Z,21.77
2017-04-10T08:51:12.155Z,21.82
2017-04-10T08:52:22.073Z,21.72
2017-04-10T08:53:32.314Z,21.75
2017-04-10T08:54:41.927Z,21.74
2017-04-10T08:55:52.170Z,21.74
2017-04-10T08:57:02.094Z,21.79
2017-04-10T08:58:11.710Z,21.77
2017-04-10T08:59:21.939Z,21.79
2017-04-10T09:00:31.546Z,21.8
2017-04-10T09:01:41.159Z,21.79
2017-04-10T09:02:51.387Z,21.82
2017-04-10T09:04:01.311Z,21.82
2017-04-10T09:05:11.565Z,21.84
2017-04-10T09:06:21.494Z,21.74
2017-04-10T09:07:31.408Z,21.79
2017-04-10T09:08:41.332Z,21.84
2017-04-10T09:09:51.569Z,21.79
2017-04-10T09:11:01.169Z,21.71
2017-04-10T09:12:11.091Z,21.77
2017-04-10T09:13:21.016Z,21.82
2017-04-10T09:14:31.302Z,21.82
2017-04-10T09:15:41.231Z,21.8
2017-04-10T09:16:51.148Z,21.84
2017-04-10T09:18:01.376Z,21.82
2017-04-10T09:19:11.607Z,21.82
2017-04-10T09:20:21.527Z,21.82
2017-04-10T09:21:31.761Z,21.75
2017-04-10T09:22:41.369Z,21.74
2017-04-10T09:23:51.288Z,21.79
2017-04-10T09:25:01.518Z,21.77
2017-04-10T09:26:11.138Z,21.84
2017-04-10T09:27:21.381Z,21.82
2017-04-10T09:28:31.619Z,21.79
2017-04-10T09:29:41.224Z,21.77
2017-04-10T09:30:51.453Z,21.77
2017-04-10T09:32:01.072Z,21.84
2017-04-10T09:33:11.306Z,21.84
2017-04-10T09:34:21.227Z,21.74
2017-04-10T09:35:31.160Z,21.79
2017-04-10T09:36:40.771Z,21.79
2017-04-10T09:37:51.007Z,21.84
2017-04-10T09:39:00.621Z,21.75
2017-04-10T09:40:10.538Z,21.84
2017-04-10T09:41:20.770Z,21.77
2017-04-10T09:42:30.378Z,21.83
2017-04-10T09:43:40.607Z,21.74
2017-04-10T09:44:50.533Z,21.82
2017-04-10T09:46:00.138Z,21.84
2017-04-10T09:47:10.373Z,21.8
2017-04-10T09:48:19.670Z,21.83
2017-04-10T09:49:29.906Z,21.74
2017-04-10T09:50:39.515Z,21.74
2017-04-10T09:51:49.122Z,21.79
2017-04-10T09:52:59.040Z,21.86
2017-04-10T09:54:09.272Z,21.84
2017-04-10T09:55:19.502Z,21.82
2017-04-10T09:56:29.416Z,21.79
2017-04-10T09:57:39.683Z,21.83
2017-04-10T09:58:49.916Z,21.77
2017-04-10T10:00:00.150Z,21.75
2017-04-10T10:01:10.420Z,21.79
2017-04-10T10:02:20.660Z,21.79
2017-04-10T10:03:29.957Z,21.74
2017-04-10T10:04:39.887Z,21.79
2017-04-10T10:05:49.810Z,21.72
2017-04-10T10:07:00.053Z,21.8
2017-04-10T10:08:10.306Z,21.79
2017-04-10T10:09:19.912Z,21.83
2017-04-10T10:10:29.837Z,21.82
2017-04-10T10:11:40.077Z,21.79
2017-04-10T10:12:49.997Z,21.83
2017-04-10T10:13:59.919Z,21.83
2017-04-10T10:15:09.215Z,21.79
2017-04-10T10:16:19.479Z,21.77
2017-04-10T10:17:29.087Z,21.74
2017-04-10T10:18:39.014Z,21.82
2017-04-10T10:19:48.936Z,21.8
2017-04-10T10:20:59.166Z,21.8
2017-04-10T10:22:09.093Z,21.82
2017-04-10T10:23:18.698Z,21.77
2017-04-10T10:24:28.928Z,21.79
2017-04-10T10:25:38.847Z,21.77
2017-04-10T10:26:48.772Z,21.71
2017-04-10T10:27:58.694Z,21.71
2017-04-10T10:29:08.664Z,21.77
2017-04-10T10:30:18.904Z,21.8
2017-04-10T10:31:28.826Z,21.74
2017-04-10T10:32:38.759Z,21.72
2017-04-10T10:33:48.366Z,21.74
2017-04-10T10:34:58.599Z,21.79
2017-04-10T10:36:07.888Z,21.8
2017-04-10T10:37:17.498Z,21.71
2017-04-10T10:38:27.732Z,21.74
2017-04-10T10:39:37.656Z,21.72
2017-04-10T10:40:47.617Z,21.72
2017-04-10T10:41:57.544Z,21.77
2017-04-10T10:43:07.784Z,21.74
2017-04-10T10:44:17.074Z,21.74
2017-04-10T10:45:26.720Z,21.71
2017-04-10T10:46:36.958Z,21.72
2017-04-10T10:47:45.946Z,21.75
2017-04-10T10:48:55.862Z,21.77
2017-04-10T10:50:05.469Z,21.77
2017-04-10T10:51:14.763Z,21.74
2017-04-10T10:52:24.371Z,21.71
2017-04-10T10:53:33.988Z,21.72
2017-04-10T10:54:43.909Z,21.79
2017-04-10T10:55:53.518Z,21.71
2017-04-10T10:57:03.166Z,21.77
2017-04-10T10:58:12.770Z,21.68
2017-04-10T10:59:23.007Z,21.77
2017-04-10T11:00:32.931Z,21.82
2017-04-10T11:01:42.855Z,21.79
2017-04-10T11:02:53.095Z,21.74
2017-04-10T11:04:03.354Z,21.72
2017-04-10T11:05:12.959Z,21.72
2017-04-10T11:06:22.879Z,21.77
2017-04-10T11:07:32.499Z,21.77
2017-04-10T11:08:42.425Z,21.75
2017-04-10T11:09:52.349Z,21.71
2017-04-10T11:11:01.961Z,21.8
2017-04-10T11:12:11.891Z,21.74
2017-04-10T11:13:21.806Z,21.71
2017-04-10T11:14:31.416Z,21.77
2017-04-10T11:15:41.337Z,21.79
2017-04-10T11:16:50.941Z,21.79
2017-04-10T11:18:00.247Z,21.74
2017-04-10T11:19:09.855Z,21.75
2017-04-10T11:20:19.770Z,21.65
2017-04-10T11:21:29.064Z,21.75
2017-04-10T11:22:38.673Z,21.77
2017-04-10T11:23:48.904Z,21.71
2017-04-10T11:24:58.818Z,21.68
2017-04-10T11:26:08.740Z,21.74
2017-04-10T11:27:18.342Z,21.69
2017-04-10T11:28:28.576Z,21.79
2017-04-10T11:29:38.189Z,21.69
2017-04-10T11:30:48.123Z,21.72
2017-04-10T11:31:58.355Z,21.8
2017-04-10T11:33:08.274Z,21.79
2017-04-10T11:34:17.891Z,21.65
2017-04-10T11:35:28.126Z,21.59
2017-04-10T11:36:38.412Z,21.56
2017-04-10T11:37:48.025Z,21.52
2017-04-10T11:38:57.938Z,21.54
2017-04-10T11:40:07.855Z,21.5
2017-04-10T11:41:17.778Z,21.58
2017-04-10T11:42:28.012Z,21.47
2017-04-10T11:43:37.933Z,21.56
2017-04-10T11:44:47.572Z,21.37
2017-04-10T11:45:57.182Z,21.35
2017-04-10T11:47:08.029Z,21.43
2017-04-10T11:48:19.302Z,21.43
2017-04-10T11:49:30.528Z,21.25
2017-04-10T11:50:40.424Z,21.29
2017-04-10T11:51:50.513Z,21.22
2017-04-10T11:53:01.254Z,21.28
2017-04-10T11:54:10.864Z,21.27
2017-04-10T11:55:21.704Z,21.49
2017-04-10T11:56:32.317Z,21.4
2017-04-10T11:57:42.239Z,21.52
2017-04-10T11:58:52.475Z,21.5
2017-04-10T12:00:02.396Z,21.54
2017-04-10T12:01:12.318Z,21.56
2017-04-10T12:02:22.238Z,21.56
2017-04-10T12:03:32.447Z,21.58
2017-04-10T12:04:43.643Z,21.65
2017-04-10T12:05:54.225Z,21.58
2017-04-10T12:07:04.379Z,21.64
2017-04-10T12:08:14.332Z,21.64
2017-04-10T12:09:24.271Z,21.65
2017-04-10T12:10:33.874Z,21.65
2017-04-10T12:11:43.797Z,21.68
2017-04-10T12:12:54.078Z,21.65
2017-04-10T12:14:04.317Z,21.58
2017-04-10T12:15:14.558Z,21.69
2017-04-10T12:16:24.803Z,21.65
2017-04-10T12:17:35.036Z,21.69
2017-04-10T12:18:45.268Z,21.64
2017-04-10T12:19:55.190Z,21.69
2017-04-10T12:21:05.428Z,21.67
2017-04-10T12:22:15.666Z,21.69
2017-04-10T12:23:25.915Z,21.62
2017-04-10T12:24:35.214Z,21.67
2017-04-10T12:25:45.172Z,21.74
2017-04-10T12:26:55.405Z,21.68
2017-04-10T12:28:05.641Z,21.69
2017-04-10T12:29:15.252Z,21.61
2017-04-10T12:30:25.487Z,21.64
2017-04-10T12:31:35.420Z,21.72
2017-04-10T12:32:45.660Z,21.71
2017-04-10T12:33:55.896Z,21.65
2017-04-10T12:35:05.498Z,21.58
2017-04-10T12:36:15.735Z,21.68
2017-04-10T12:37:25.032Z,21.68
2017-04-10T12:38:34.952Z,21.62
2017-04-10T12:39:44.872Z,21.68
2017-04-10T12:40:54.481Z,21.69
2017-04-10T12:42:04.714Z,21.64
2017-04-10T12:43:14.955Z,21.64
2017-04-10T12:44:25.188Z,21.69
2017-04-10T12:45:35.107Z,21.72
2017-04-10T12:46:45.343Z,21.61
2017-04-10T12:47:55.599Z,21.72
2017-04-10T12:49:05.847Z,21.68
2017-04-10T12:50:15.760Z,21.61
2017-04-10T12:51:25.681Z,21.65
2017-04-10T12:52:35.910Z,21.75
2017-04-10T12:53:46.139Z,21.68
2017-04-10T12:54:56.370Z,21.67
2017-04-10T12:56:06.289Z,21.74
2017-04-10T12:57:15.903Z,21.75
2017-04-10T12:58:25.825Z,21.69
2017-04-10T12:59:36.061Z,21.74
2017-04-10T13:00:45.979Z,21.79
2017-04-10T13:01:55.587Z,21.75
2017-04-10T13:03:05.823Z,21.74
2017-04-10T13:04:16.115Z,21.74
2017-04-10T13:05:26.362Z,21.79
2017-04-10T13:06:36.282Z,21.75
2017-04-10T13:07:46.201Z,21.74
2017-04-10T13:08:56.128Z,21.72
2017-04-10T13:10:06.058Z,21.68
2017-04-10T13:11:15.666Z,21.77
2017-04-10T13:12:25.905Z,21.72
2017-04-10T13:13:36.174Z,21.69
2017-04-10T13:14:46.420Z,21.72
2017-04-10T13:15:56.658Z,21.79
2017-04-10T13:17:06.589Z,21.74
2017-04-10T13:18:16.507Z,21.82
2017-04-10T13:19:26.741Z,21.53
2017-04-10T13:20:36.659Z,21.37
2017-04-10T13:21:46.578Z,21.21
2017-04-10T13:22:56.499Z,21.31
2017-04-10T13:24:06.424Z,21.24
2017-04-10T13:25:16.651Z,21.19
2017-04-10T13:26:26.887Z,21.1
2017-04-10T13:27:37.121Z,21.12
2017-04-10T13:28:47.051Z,21.07
2017-04-10T13:29:56.976Z,21.09
2017-04-10T13:31:07.219Z,21.09
2017-04-10T13:32:17.453Z,21.09
2017-04-10T13:33:27.063Z,21.04
2017-04-10T13:34:36.672Z,20.94
2017-04-10T13:35:46.588Z,20.97
2017-04-10T13:36:56.511Z,20.91
2017-04-10T13:38:06.431Z,21.07
2017-04-10T13:39:16.353Z,20.95
2017-04-10T13:40:25.955Z,20.95
2017-04-10T13:41:36.187Z,20.91
2017-04-10T13:42:46.108Z,20.94
2017-04-10T13:43:56.031Z,20.88
2017-04-10T13:45:05.969Z,20.91
2017-04-10T13:46:16.216Z,20.8
2017-04-10T13:47:26.139Z,20.8
2017-04-10T13:48:36.060Z,20.85
2017-04-10T13:49:45.978Z,20.89
2017-04-10T13:50:55.897Z,20.84
2017-04-10T13:52:05.821Z,20.74
2017-04-10T13:53:15.434Z,20.76
2017-04-10T13:54:25.352Z,20.7
2017-04-10T13:55:35.270Z,20.76
2017-04-10T13:56:45.208Z,20.87
2017-04-10T13:57:55.458Z,20.67
2017-04-10T13:59:05.690Z,20.79
2017-04-10T14:00:14.987Z,20.77
2017-04-10T14:01:24.924Z,20.73
2017-04-10T14:02:34.849Z,20.73
2017-04-10T14:03:45.081Z,20.74
2017-04-10T14:04:55.002Z,20.72
2017-04-10T14:06:04.923Z,20.79
2017-04-10T14:07:14.851Z,20.74
2017-04-10T14:08:24.144Z,20.59
2017-04-10T14:09:34.070Z,20.7
2017-04-10T14:10:44.308Z,20.72
2017-04-10T14:11:54.229Z,20.69
2017-04-10T14:13:04.483Z,20.76
2017-04-10T14:14:14.411Z,20.73
2017-04-10T14:15:24.333Z,20.76
2017-04-10T14:16:34.565Z,20.89
2017-04-10T14:17:44.804Z,21.09
2017-04-10T14:18:55.044Z,21.07
2017-04-10T14:20:04.962Z,21.09
2017-04-10T14:21:14.581Z,21.19
2017-04-10T14:22:24.500Z,21.21
2017-04-10T14:23:34.741Z,21.27
2017-04-10T14:24:45.011Z,21.27
2017-04-10T14:25:55.251Z,21.24
2017-04-10T14:27:05.485Z,21.32
2017-04-10T14:28:14.785Z,21.37
2017-04-10T14:29:25.029Z,21.37
2017-04-10T14:30:35.272Z,21.31
2017-04-10T14:31:45.516Z,21.38
2017-04-10T14:32:55.742Z,21.34
2017-04-10T14:34:05.669Z,21.4
2017-04-10T14:35:15.919Z,21.38
2017-04-10T14:36:25.529Z,21.43
2017-04-10T14:37:35.763Z,21.37
2017-04-10T14:38:45.681Z,21.35
2017-04-10T14:39:55.339Z,21.35
2017-04-10T14:41:05.574Z,21.35
2017-04-10T14:42:15.805Z,21.44
2017-04-10T14:43:25.728Z,21.44
2017-04-10T14:44:36.012Z,21.56
2017-04-10T14:45:45.939Z,21.53
2017-04-10T14:46:55.863Z,21.44
2017-04-10T14:48:06.095Z,21.47
2017-04-10T14:49:16.019Z,21.53
2017-04-10T14:50:25.950Z,21.49
2017-04-10T14:51:36.226Z,21.52
2017-04-10T14:52:46.182Z,21.47
2017-04-10T14:53:56.098Z,21.4
2017-04-10T14:55:06.029Z,21.5
2017-04-10T14:56:15.640Z,21.56
2017-04-10T14:57:25.563Z,21.44
2017-04-10T14:58:35.488Z,21.31
2017-04-10T14:59:45.413Z,21.42
2017-04-10T15:00:55.650Z,21.46
2017-04-10T15:02:05.588Z,21.38
2017-04-10T15:03:15.206Z,21.38